ADDS METAR Data INFO
IDs: Format: Raw Decoded Include TAF

Data at: 1751 UTC 21 Oct 2017

KFRG 211653Z 22008KT 10SM CLR 23/08 A3032 RMK AO2 SLP266 T02330083
KFRG 211608Z 24004KT 10SM CLR 23/03 A3033 RMK AO2 T02330033
KFRG 211553Z VRB04KT 10SM CLR 23/04 A3034 RMK AO2 SLP272 T02330044
KFRG 211453Z 27004KT 10SM CLR 22/05 A3034 RMK AO2 SLP273 T02170050 51014
KFRG 211353Z 36003KT 10SM CLR 19/06 A3033 RMK AO2 SLP271 T01940056
KFRG 211253Z 35005KT 10SM CLR 16/07 A3033 RMK AO2 SLP269 T01560067
KFRG 211153Z 01006KT 10SM CLR 12/06 A3030 RMK AO2 SLP259 T01220061 10133 20089 53014
KFRG 211053Z 35003KT 10SM CLR 11/07 A3028 RMK AO2 SLP253 T01060067
KFRG 210953Z AUTO 36004KT 10SM CLR 10/06 A3027 RMK AO2 SLP249 T01000061
KFRG 210853Z AUTO 00000KT 10SM CLR 09/06 A3026 RMK AO2 SLP246 T00940056 51009
KFRG 210753Z AUTO 00000KT 10SM CLR 10/06 A3025 RMK AO2 SLP244 T01000061
KFRG 210653Z AUTO 35003KT 10SM CLR 12/06 A3024 RMK AO2 SLP240 T01220061
KFRG 210553Z AUTO 36004KT 10SM CLR 13/06 A3023 RMK AO2 SLP237 T01280061 10172 20117 53010
KFRG 210453Z AUTO 00000KT 10SM CLR 12/06 A3022 RMK AO2 SLP232 T01220061 402220106
KFRG 210353Z AUTO 00000KT 10SM CLR 13/07 A3021 RMK AO2 SLP230 T01280067
KFRG 210253Z 33003KT 10SM CLR 13/07 A3020 RMK AO2 SLP227 T01330067 53018
KFRG 210153Z 35003KT 10SM CLR 14/07 A3017 RMK AO2 SLP217 T01390067
KFRG 210053Z 00000KT 10SM CLR 15/06 A3016 RMK AO2 SLP212 T01500061
KFRG 202353Z 01003KT 10SM CLR 15/05 A3015 RMK AO2 SLP209 T01500050 10222 20150 53019
KFRG 202253Z 34003KT 10SM CLR 19/03 A3013 RMK AO2 SLP202 T01940033
KFRG 202153Z AUTO 29004KT 10SM CLR 21/02 A3011 RMK AO2 SLP194 T02060022
KFRG 202053Z AUTO 31006KT 10SM CLR 22/01 A3009 RMK AO2 SLP189 T02220011 56002
KFRG 201953Z AUTO 32009KT 10SM CLR 22/01 A3009 RMK AO2 SLP189 T02220006
KFRG 201853Z 29009KT 10SM CLR 22/00 A3010 RMK AO2 SLP191 T02220000
KFRG 201753Z 32009KT 10SM CLR 22/M02 A3010 RMK AO2 SLP191 T02171017 10222 20144 58019
KFRG 201653Z 28008G14KT 10SM CLR 21/02 A3012 RMK AO2 SLP198 T02110017
KFRG 201553Z 31005KT 10SM CLR 20/03 A3014 RMK AO2 SLP205 T02000033
KFRG 201453Z 30008KT 10SM CLR 19/05 A3015 RMK AO2 SLP210 T01890050 50008
KFRG 201353Z 32008KT 10SM CLR 18/07 A3016 RMK AO2 SLP213 T01780067
KFRG 201253Z 30008KT 10SM CLR 16/07 A3014 RMK AO2 SLP207 T01610072
KFRG 201153Z 30007KT 10SM CLR 15/08 A3013 RMK AO2 SLP202 T01500083 10150 20106 53018
KFRG 201053Z 30003KT 10SM CLR 12/08 A3011 RMK AO2 SLP194 T01220083
KFRG 200953Z AUTO 25004KT 10SM CLR 11/08 A3009 RMK AO2 SLP190 T01110083
KFRG 200853Z AUTO 00000KT 10SM CLR 13/08 A3008 RMK AO2 SLP185 T01280083 53001
KFRG 200753Z AUTO 28005KT 10SM CLR 13/09 A3007 RMK AO2 SLP180 T01280094
KFRG 200653Z AUTO 27007KT 10SM CLR 14/09 A3007 RMK AO2 SLP181 T01390094
KFRG 200553Z AUTO 27007KT 10SM CLR 14/09 A3007 RMK AO2 SLP183 T01440094 10167 20144 56005